sensor_id;sensor_type;location;lat;lon;timestamp;pressure;altitude;pressure_sealevel;temperature;humidity
48644;BME280;34928;37.302;-121.984;2023-02-03T00:00:18;101575.0;;;25.39;18.61
48644;BME280;34928;37.302;-121.984;2023-02-03T00:10:22;101605.0;;;25.44;18.54
48644;BME280;34928;37.302;-121.984;2023-02-03T00:20:27;101643.0;;;25.50;18.39
48644;BME280;34928;37.302;-121.984;2023-02-03T00:30:34;101666.0;;;25.51;18.34
48644;BME280;34928;37.302;-121.984;2023-02-03T00:40:41;101670.0;;;25.75;18.31
48644;BME280;34928;37.302;-121.984;2023-02-03T00:50:48;101669.0;;;25.52;18.32
48644;BME280;34928;37.302;-121.984;2023-02-03T01:00:54;101671.0;;;25.56;18.24
48644;BME280;34928;37.302;-121.984;2023-02-03T01:10:58;101655.0;;;25.58;18.21
48644;BME280;34928;37.302;-121.984;2023-02-03T01:21:06;101648.0;;;25.51;18.02
48644;BME280;34928;37.302;-121.984;2023-02-03T01:31:14;101645.0;;;25.77;18.25
48644;BME280;34928;37.302;-121.984;2023-02-03T01:41:25;101643.0;;;25.54;18.44
48644;BME280;34928;37.302;-121.984;2023-02-03T01:51:32;101597.0;;;25.60;18.71
48644;BME280;34928;37.302;-121.984;2023-02-03T02:01:37;101603.0;;;25.86;17.21
48644;BME280;34928;37.302;-121.984;2023-02-03T02:11:42;101609.0;;;26.23;18.19
48644;BME280;34928;37.302;-121.984;2023-02-03T02:21:59;101596.0;;;26.30;17.81
48644;BME280;34928;37.302;-121.984;2023-02-03T02:32:20;101586.0;;;26.75;16.87
48644;BME280;34928;37.302;-121.984;2023-02-03T02:42:35;101581.0;;;26.74;16.64
48644;BME280;34928;37.302;-121.984;2023-02-03T02:52:45;101589.0;;;26.74;16.35
48644;BME280;34928;37.302;-121.984;2023-02-03T03:02:52;101592.0;;;26.93;16.23
48644;BME280;34928;37.302;-121.984;2023-02-03T03:13:00;101587.0;;;26.97;16.32
48644;BME280;34928;37.302;-121.984;2023-02-03T03:23:10;101570.0;;;27.11;16.54
48644;BME280;34928;37.302;-121.984;2023-02-03T03:33:18;101558.0;;;26.90;16.37
48644;BME280;34928;37.302;-121.984;2023-02-03T03:43:26;101551.0;;;27.27;16.49
48644;BME280;34928;37.302;-121.984;2023-02-03T03:53:35;101570.0;;;27.01;16.53
48644;BME280;34928;37.302;-121.984;2023-02-03T04:03:45;101559.0;;;27.20;16.54
48644;BME280;34928;37.302;-121.984;2023-02-03T04:13:52;101554.0;;;27.22;16.77
48644;BME280;34928;37.302;-121.984;2023-02-03T04:23:57;101555.0;;;27.09;16.89
48644;BME280;34928;37.302;-121.984;2023-02-03T04:34:02;101555.0;;;27.29;17.46
48644;BME280;34928;37.302;-121.984;2023-02-03T04:44:07;101562.0;;;27.41;17.24
48644;BME280;34928;37.302;-121.984;2023-02-03T04:54:12;101561.0;;;27.24;17.31
48644;BME280;34928;37.302;-121.984;2023-02-03T05:04:17;101583.0;;;27.23;17.43
48644;BME280;34928;37.302;-121.984;2023-02-03T05:14:23;101570.0;;;27.23;16.93
48644;BME280;34928;37.302;-121.984;2023-02-03T05:24:27;101565.0;;;27.61;17.18
48644;BME280;34928;37.302;-121.984;2023-02-03T05:34:32;101561.0;;;27.31;17.10
48644;BME280;34928;37.302;-121.984;2023-02-03T05:44:38;101555.0;;;27.64;17.14
48644;BME280;34928;37.302;-121.984;2023-02-03T05:54:42;101548.0;;;27.45;17.49
48644;BME280;34928;37.302;-121.984;2023-02-03T06:04:47;101534.0;;;27.26;17.43
48644;BME280;34928;37.302;-121.984;2023-02-03T06:14:52;101538.0;;;27.71;17.30
48644;BME280;34928;37.302;-121.984;2023-02-03T06:24:58;101555.0;;;27.52;17.01
48644;BME280;34928;37.302;-121.984;2023-02-03T06:35:02;101557.0;;;27.60;16.75
48644;BME280;34928;37.302;-121.984;2023-02-03T06:45:09;101563.0;;;27.36;17.26
48644;BME280;34928;37.302;-121.984;2023-02-03T06:55:12;101565.0;;;27.31;17.51
48644;BME280;34928;37.302;-121.984;2023-02-03T07:05:18;101574.0;;;27.40;17.67
48644;BME280;34928;37.302;-121.984;2023-02-03T07:15:22;101575.0;;;27.54;17.58
48644;BME280;34928;37.302;-121.984;2023-02-03T07:25:27;101585.0;;;27.46;17.65
48644;BME280;34928;37.302;-121.984;2023-02-03T07:35:33;101591.0;;;27.14;17.63
48644;BME280;34928;37.302;-121.984;2023-02-03T07:45:37;101609.0;;;27.27;17.62
48644;BME280;34928;37.302;-121.984;2023-02-03T08:06:07;101604.0;;;27.33;17.50
48644;BME280;34928;37.302;-121.984;2023-02-03T08:16:12;101590.0;;;26.95;17.67
48644;BME280;34928;37.302;-121.984;2023-02-03T08:26:17;101580.0;;;27.05;18.05
48644;BME280;34928;37.302;-121.984;2023-02-03T08:36:23;101592.0;;;26.70;18.15
48644;BME280;34928;37.302;-121.984;2023-02-03T08:46:27;101569.0;;;26.60;18.23
48644;BME280;34928;37.302;-121.984;2023-02-03T08:56:33;101565.0;;;26.52;18.25
48644;BME280;34928;37.302;-121.984;2023-02-03T09:06:37;101541.0;;;26.32;18.37
48644;BME280;34928;37.302;-121.984;2023-02-03T09:16:42;101535.0;;;26.65;17.82
48644;BME280;34928;37.302;-121.984;2023-02-03T09:26:47;101537.0;;;26.36;17.67
48644;BME280;34928;37.302;-121.984;2023-02-03T09:36:52;101547.0;;;26.25;17.60
48644;BME280;34928;37.302;-121.984;2023-02-03T09:47:01;101535.0;;;26.36;18.16
48644;BME280;34928;37.302;-121.984;2023-02-03T09:57:14;101562.0;;;26.18;17.80
48644;BME280;34928;37.302;-121.984;2023-02-03T10:07:29;101553.0;;;25.78;17.94
48644;BME280;34928;37.302;-121.984;2023-02-03T10:17:40;101542.0;;;25.85;17.53
48644;BME280;34928;37.302;-121.984;2023-02-03T10:27:48;101528.0;;;25.78;17.42
48644;BME280;34928;37.302;-121.984;2023-02-03T10:37:57;101511.0;;;25.84;17.48
48644;BME280;34928;37.302;-121.984;2023-02-03T10:48:03;101490.0;;;26.04;17.44
48644;BME280;34928;37.302;-121.984;2023-02-03T10:58:15;101476.0;;;25.59;17.42
48644;BME280;34928;37.302;-121.984;2023-02-03T11:08:29;101490.0;;;25.78;17.35
48644;BME280;34928;37.302;-121.984;2023-02-03T11:18:39;101511.0;;;25.75;17.31
48644;BME280;34928;37.302;-121.984;2023-02-03T11:28:51;101476.0;;;25.58;17.36
48644;BME280;34928;37.302;-121.984;2023-02-03T11:49:35;101514.0;;;25.54;17.54
48644;BME280;34928;37.302;-121.984;2023-02-03T11:59:55;101501.0;;;25.10;17.63
48644;BME280;34928;37.302;-121.984;2023-02-03T12:10:15;101512.0;;;25.08;17.62
48644;BME280;34928;37.302;-121.984;2023-02-03T12:20:42;101512.0;;;25.13;17.56
48644;BME280;34928;37.302;-121.984;2023-02-03T12:30:53;101516.0;;;25.41;17.53
48644;BME280;34928;37.302;-121.984;2023-02-03T12:41:00;101568.0;;;25.12;17.53
48644;BME280;34928;37.302;-121.984;2023-02-03T12:51:07;101597.0;;;25.59;17.56
48644;BME280;34928;37.302;-121.984;2023-02-03T13:01:18;101624.0;;;25.00;17.61
48644;BME280;34928;37.302;-121.984;2023-02-03T13:11:27;101586.0;;;25.21;17.61
48644;BME280;34928;37.302;-121.984;2023-02-03T13:21:33;101586.0;;;24.85;17.67
48644;BME280;34928;37.302;-121.984;2023-02-03T13:31:45;101587.0;;;24.97;17.74
48644;BME280;34928;37.302;-121.984;2023-02-03T13:41:55;101591.0;;;24.58;17.77
48644;BME280;34928;37.302;-121.984;2023-02-03T13:52:25;101595.0;;;24.82;17.29
48644;BME280;34928;37.302;-121.984;2023-02-03T14:02:43;101608.0;;;25.52;17.76
48644;BME280;34928;37.302;-121.984;2023-02-03T14:12:57;101587.0;;;25.83;17.79
48644;BME280;34928;37.302;-121.984;2023-02-03T14:23:09;101598.0;;;26.25;17.84
48644;BME280;34928;37.302;-121.984;2023-02-03T14:33:12;101617.0;;;26.20;18.03
48644;BME280;34928;37.302;-121.984;2023-02-03T14:43:27;101620.0;;;26.17;17.86
48644;BME280;34928;37.302;-121.984;2023-02-03T14:53:48;101630.0;;;26.50;18.16
48644;BME280;34928;37.302;-121.984;2023-02-03T15:14:21;101642.0;;;26.31;18.62
48644;BME280;34928;37.302;-121.984;2023-02-03T15:24:35;101664.0;;;27.13;18.92
48644;BME280;34928;37.302;-121.984;2023-02-03T15:34:44;101683.0;;;26.94;18.90
48644;BME280;34928;37.302;-121.984;2023-02-03T15:44:56;101712.0;;;27.20;19.07
48644;BME280;34928;37.302;-121.984;2023-02-03T15:55:13;101744.0;;;26.90;19.15
48644;BME280;34928;37.302;-121.984;2023-02-03T16:05:25;101747.0;;;26.98;19.00
48644;BME280;34928;37.302;-121.984;2023-02-03T16:15:33;101753.0;;;27.04;18.46
48644;BME280;34928;37.302;-121.984;2023-02-03T16:25:38;101769.0;;;26.91;18.99
48644;BME280;34928;37.302;-121.984;2023-02-03T16:35:42;101789.0;;;26.82;19.00
48644;BME280;34928;37.302;-121.984;2023-02-03T16:45:52;101795.0;;;26.49;19.14
48644;BME280;34928;37.302;-121.984;2023-02-03T16:56:00;101803.0;;;26.36;19.04
48644;BME280;34928;37.302;-121.984;2023-02-03T17:06:09;101812.0;;;26.59;19.15
48644;BME280;34928;37.302;-121.984;2023-02-03T17:16:19;101806.0;;;26.01;19.16
48644;BME280;34928;37.302;-121.984;2023-02-03T17:26:22;101812.0;;;26.53;19.07
48644;BME280;34928;37.302;-121.984;2023-02-03T17:36:27;101818.0;;;26.28;19.02
48644;BME280;34928;37.302;-121.984;2023-02-03T17:46:33;101811.0;;;26.03;19.14
48644;BME280;34928;37.302;-121.984;2023-02-03T17:56:37;101823.0;;;26.25;18.92
48644;BME280;34928;37.302;-121.984;2023-02-03T18:06:42;101821.0;;;26.11;18.95
48644;BME280;34928;37.302;-121.984;2023-02-03T18:16:47;101819.0;;;25.93;19.03
48644;BME280;34928;37.302;-121.984;2023-02-03T18:26:52;101803.0;;;25.82;18.87
48644;BME280;34928;37.302;-121.984;2023-02-03T18:36:57;101805.0;;;25.77;19.21
48644;BME280;34928;37.302;-121.984;2023-02-03T18:47:02;101799.0;;;25.80;19.29
48644;BME280;34928;37.302;-121.984;2023-02-03T18:57:07;101807.0;;;25.76;19.36
48644;BME280;34928;37.302;-121.984;2023-02-03T19:07:12;101796.0;;;25.77;19.33
48644;BME280;34928;37.302;-121.984;2023-02-03T19:17:18;101792.0;;;25.60;19.46
48644;BME280;34928;37.302;-121.984;2023-02-03T19:27:23;101779.0;;;25.47;19.60
48644;BME280;34928;37.302;-121.984;2023-02-03T19:37:27;101764.0;;;25.43;19.52
48644;BME280;34928;37.302;-121.984;2023-02-03T19:47:33;101746.0;;;25.55;19.63
48644;BME280;34928;37.302;-121.984;2023-02-03T19:57:37;101735.0;;;25.67;19.60
48644;BME280;34928;37.302;-121.984;2023-02-03T20:07:42;101709.0;;;25.73;19.55
48644;BME280;34928;37.302;-121.984;2023-02-03T20:17:47;101701.0;;;25.68;19.61
48644;BME280;34928;37.302;-121.984;2023-02-03T20:27:52;101694.0;;;25.45;19.88
48644;BME280;34928;37.302;-121.984;2023-02-03T20:37:57;101675.0;;;25.48;19.90
48644;BME280;34928;37.302;-121.984;2023-02-03T20:48:02;101656.0;;;25.40;20.07
48644;BME280;34928;37.302;-121.984;2023-02-03T20:58:15;101652.0;;;25.54;20.03
48644;BME280;34928;37.302;-121.984;2023-02-03T21:08:24;101640.0;;;25.67;19.90
48644;BME280;34928;37.302;-121.984;2023-02-03T21:18:32;101632.0;;;25.72;19.84
48644;BME280;34928;37.302;-121.984;2023-02-03T21:28:37;101638.0;;;25.74;19.83
48644;BME280;34928;37.302;-121.984;2023-02-03T21:38:42;101639.0;;;25.69;19.91
48644;BME280;34928;37.302;-121.984;2023-02-03T21:48:49;101622.0;;;25.72;19.99
48644;BME280;34928;37.302;-121.984;2023-02-03T21:58:55;101622.0;;;25.75;19.99
48644;BME280;34928;37.302;-121.984;2023-02-03T22:09:02;101616.0;;;25.53;19.98
48644;BME280;34928;37.302;-121.984;2023-02-03T22:19:08;101615.0;;;25.78;19.99
48644;BME280;34928;37.302;-121.984;2023-02-03T22:29:12;101617.0;;;25.79;19.99
48644;BME280;34928;37.302;-121.984;2023-02-03T22:39:17;101616.0;;;25.83;20.00
48644;BME280;34928;37.302;-121.984;2023-02-03T22:49:22;101618.0;;;25.83;20.09
48644;BME280;34928;37.302;-121.984;2023-02-03T22:59:27;101618.0;;;25.77;20.15
48644;BME280;34928;37.302;-121.984;2023-02-03T23:09:32;101630.0;;;25.29;21.53
48644;BME280;34928;37.302;-121.984;2023-02-03T23:19:37;101629.0;;;25.43;21.55
48644;BME280;34928;37.302;-121.984;2023-02-03T23:29:42;101640.0;;;25.52;20.82
48644;BME280;34928;37.302;-121.984;2023-02-03T23:39:48;101630.0;;;25.87;20.65
48644;BME280;34928;37.302;-121.984;2023-02-03T23:49:52;101624.0;;;25.96;21.00
48644;BME280;34928;37.302;-121.984;2023-02-03T23:59:57;101635.0;;;26.00;20.66
